Time;durP1;ratioP1;P1;durP2;ratioP2;P2;SDS_P1;SDS_P2;PMS_P1;PMS_P2;Temp;Humidity;BMP_temperature;BMP_pressure;BME280_temperature;BME280_humidity;BME280_pressure;Samples;Min_cycle;Max_cycle;Signal;HPM_P1;HPM_P2
2021/05/14 00:02:05;;;;;;;;;4.50;4.50;;;;;;;;5056060;28;10102;-78
2021/05/14 00:04:32;;;;;;;;;3.00;3.00;;;;;;;;5050748;28;9982;-78
2021/05/14 00:06:59;;;;;;;;;3.25;3.25;;;;;;;;5060837;28;9932;-78
2021/05/14 00:09:26;;;;;;;;;4.00;4.00;;;;;;;;5052318;28;10021;-78
2021/05/14 00:11:54;;;;;;;;;3.75;3.75;;;;;;;;5048704;28;10028;-78
2021/05/14 00:14:21;;;;;;;;;5.00;4.00;;;;;;;;5052755;28;10054;-79
2021/05/14 00:16:48;;;;;;;;;3.75;3.75;;;;;;;;5053740;28;9992;-78
2021/05/14 00:19:15;;;;;;;;;5.25;3.50;;;;;;;;5051200;28;10048;-79
2021/05/14 00:21:42;;;;;;;;;3.25;3.25;;;;;;;;5041549;28;10037;-79
2021/05/14 00:24:09;;;;;;;;;3.00;3.00;;;;;;;;5040290;28;9993;-79
2021/05/14 00:26:36;;;;;;;;;3.00;3.00;;;;;;;;5053702;28;10870;-78
2021/05/14 00:29:04;;;;;;;;;6.00;3.25;;;;;;;;5062143;28;10043;-79
2021/05/14 00:31:31;;;;;;;;;3.00;3.00;;;;;;;;5061597;28;10028;-78
2021/05/14 00:33:58;;;;;;;;;7.25;4.25;;;;;;;;5059966;28;10038;-79
2021/05/14 00:36:25;;;;;;;;;4.00;4.00;;;;;;;;5064840;28;10085;-78
2021/05/14 00:38:55;;;;;;;;;3.25;3.25;;;;;;;;5058022;28;9878;-79
2021/05/14 00:41:22;;;;;;;;;5.00;5.00;;;;;;;;5049646;28;10567;-79
2021/05/14 00:43:49;;;;;;;;;3.00;3.00;;;;;;;;5050764;28;9991;-79
2021/05/14 00:46:16;;;;;;;;;3.50;3.00;;;;;;;;5052626;28;10053;-79
2021/05/14 00:48:44;;;;;;;;;4.50;3.25;;;;;;;;5055513;28;9977;-79
2021/05/14 00:51:11;;;;;;;;;3.00;3.00;;;;;;;;5057993;28;9947;-79
2021/05/14 00:53:38;;;;;;;;;3.00;3.00;;;;;;;;5056264;28;10019;-79
2021/05/14 00:56:05;;;;;;;;;2.25;2.25;;;;;;;;5054166;28;9943;-79
2021/05/14 00:58:32;;;;;;;;;2.25;2.25;;;;;;;;5064711;28;9931;-79
2021/05/14 01:00:59;;;;;;;;;4.00;4.00;;;;;;;;5052757;28;9896;-78
2021/05/14 01:03:27;;;;;;;;;4.00;4.00;;;;;;;;5065428;28;10812;-78
2021/05/14 01:05:54;;;;;;;;;4.25;4.25;;;;;;;;5056540;28;10120;-77
2021/05/14 01:08:21;;;;;;;;;6.00;3.50;;;;;;;;5060376;28;10115;-78
2021/05/14 01:10:50;;;;;;;;;5.00;3.00;;;;;;;;5034694;28;10109;-78
2021/05/14 01:13:24;;;;;;;;;3.25;3.25;;;;;;;;5045310;28;10184;-78
2021/05/14 01:15:51;;;;;;;;;4.00;4.00;;;;;;;;5056426;28;10162;-78
2021/05/14 01:18:18;;;;;;;;;4.50;4.50;;;;;;;;5054786;28;10387;-78
2021/05/14 01:20:46;;;;;;;;;6.00;2.50;;;;;;;;5056496;28;10368;-78
2021/05/14 01:23:14;;;;;;;;;6.00;6.00;;;;;;;;5061322;28;10960;-78
2021/05/14 01:25:40;;;;;;;;;6.00;3.75;;;;;;;;5056608;28;10421;-78
2021/05/14 01:28:07;;;;;;;;;7.50;6.00;;;;;;;;5057902;28;10334;-78
2021/05/14 01:30:34;;;;;;;;;4.50;4.50;;;;;;;;5056957;28;10336;-77
2021/05/14 01:33:01;;;;;;;;;5.50;5.50;;;;;;;;5052393;28;10408;-78
2021/05/14 01:35:28;;;;;;;;;4.50;4.50;;;;;;;;5049546;28;10313;-77
2021/05/14 01:37:56;;;;;;;;;7.00;6.00;;;;;;;;5060349;28;10431;-77
2021/05/14 01:40:23;;;;;;;;;4.00;4.00;;;;;;;;5055150;28;10508;-77
2021/05/14 01:42:50;;;;;;;;;4.50;4.50;;;;;;;;5061223;28;11046;-78
2021/05/14 01:45:18;;;;;;;;;6.00;6.00;;;;;;;;5053680;28;10365;-78
2021/05/14 01:47:45;;;;;;;;;7.25;7.00;;;;;;;;5059082;28;10360;-78
2021/05/14 01:50:12;;;;;;;;;6.00;3.50;;;;;;;;5039530;28;10460;-78
2021/05/14 01:52:39;;;;;;;;;4.00;4.00;;;;;;;;5052686;28;10389;-78
2021/05/14 01:55:09;;;;;;;;;6.00;6.00;;;;;;;;5063184;28;10456;-78
2021/05/14 01:57:36;;;;;;;;;5.50;5.00;;;;;;;;5036177;28;10463;-78
2021/05/14 02:00:03;;;;;;;;;6.25;6.00;;;;;;;;5068353;28;10482;-78
2021/05/14 02:02:30;;;;;;;;;6.75;6.00;;;;;;;;5055281;28;10544;-77
2021/05/14 02:04:57;;;;;;;;;3.25;3.25;;;;;;;;5061929;28;10725;-78
2021/05/14 02:07:24;;;;;;;;;7.00;4.00;;;;;;;;5060567;28;10913;-78
2021/05/14 02:09:52;;;;;;;;;2.00;2.00;;;;;;;;5058912;28;10783;-78
2021/05/14 02:12:20;;;;;;;;;9.00;8.00;;;;;;;;5058024;28;11021;-77
2021/05/14 02:14:47;;;;;;;;;11.50;8.75;;;;;;;;5048571;28;10865;-77
2021/05/14 02:17:14;;;;;;;;;8.75;8.75;;;;;;;;5056890;28;10833;-77
2021/05/14 02:19:40;;;;;;;;;11.25;11.25;;;;;;;;5059412;28;11473;-77
2021/05/14 02:22:08;;;;;;;;;9.00;8.00;;;;;;;;5059873;28;11139;-77
2021/05/14 02:24:35;;;;;;;;;12.25;10.00;;;;;;;;5055256;28;11018;-77
2021/05/14 02:27:03;;;;;;;;;12.25;12.25;;;;;;;;5051710;28;10993;-78
2021/05/14 02:29:34;;;;;;;;;16.75;12.75;;;;;;;;5054299;28;11784;-78
2021/05/14 02:32:01;;;;;;;;;15.75;14.25;;;;;;;;5048363;28;11035;-78
2021/05/14 02:34:28;;;;;;;;;12.75;12.50;;;;;;;;5063468;28;11173;-77
2021/05/14 02:36:55;;;;;;;;;16.50;16.50;;;;;;;;5057707;28;11944;-78
2021/05/14 02:39:22;;;;;;;;;19.00;19.00;;;;;;;;5055660;28;11106;-77
2021/05/14 02:41:49;;;;;;;;;18.00;18.00;;;;;;;;5031023;28;11429;-78
2021/05/14 02:44:16;;;;;;;;;19.25;18.00;;;;;;;;5061916;28;12289;-78
2021/05/14 02:46:45;;;;;;;;;17.25;17.00;;;;;;;;5055003;28;11275;-78
2021/05/14 02:49:12;;;;;;;;;19.00;19.00;;;;;;;;5047827;28;12065;-77
2021/05/14 02:51:39;;;;;;;;;27.00;27.00;;;;;;;;5048146;28;11361;-77
2021/05/14 02:54:06;;;;;;;;;31.50;28.25;;;;;;;;5053286;28;11620;-77
2021/05/14 02:56:34;;;;;;;;;23.50;22.75;;;;;;;;5053628;28;11507;-77
2021/05/14 02:59:01;;;;;;;;;20.25;18.75;;;;;;;;5061461;28;12303;-78
2021/05/14 03:01:28;;;;;;;;;22.25;18.50;;;;;;;;5057928;28;11557;-79
2021/05/14 03:03:56;;;;;;;;;17.50;17.50;;;;;;;;5046034;28;12397;-77
2021/05/14 03:06:23;;;;;;;;;17.75;16.25;;;;;;;;5060831;28;11562;-78
2021/05/14 03:08:50;;;;;;;;;18.25;18.25;;;;;;;;5056555;28;11207;-77
2021/05/14 03:11:17;;;;;;;;;23.75;21.25;;;;;;;;5061164;28;11516;-77
2021/05/14 03:13:44;;;;;;;;;22.50;22.50;;;;;;;;5054325;28;11493;-78
2021/05/14 03:16:11;;;;;;;;;18.25;18.25;;;;;;;;5052926;28;11513;-78
2021/05/14 03:18:38;;;;;;;;;20.25;20.25;;;;;;;;5056247;28;11194;-77
2021/05/14 03:21:06;;;;;;;;;17.00;17.00;;;;;;;;5049373;28;11503;-78
2021/05/14 03:23:33;;;;;;;;;19.25;19.25;;;;;;;;5039329;28;11865;-78
2021/05/14 03:26:00;;;;;;;;;18.00;18.00;;;;;;;;5050774;28;11496;-78
2021/05/14 03:28:27;;;;;;;;;15.75;15.75;;;;;;;;5050969;28;11290;-77
2021/05/14 03:30:54;;;;;;;;;13.75;13.75;;;;;;;;5053725;28;11014;-78
2021/05/14 03:33:21;;;;;;;;;20.00;16.00;;;;;;;;5050564;28;11190;-77
2021/05/14 03:35:49;;;;;;;;;21.25;15.50;;;;;;;;5054813;28;12113;-78
2021/05/14 03:38:17;;;;;;;;;14.75;14.75;;;;;;;;5047377;28;11948;-77
2021/05/14 03:40:44;;;;;;;;;13.25;13.25;;;;;;;;5054585;28;11125;-77
2021/05/14 03:43:11;;;;;;;;;13.00;13.00;;;;;;;;5060467;28;11033;-78
2021/05/14 03:45:38;;;;;;;;;13.25;13.25;;;;;;;;5050259;28;11072;-78
2021/05/14 03:48:18;;;;;;;;;11.25;11.25;;;;;;;;5032046;28;10960;-77
2021/05/14 03:50:46;;;;;;;;;11.25;11.25;;;;;;;;5055691;28;11099;-78
2021/05/14 03:53:14;;;;;;;;;11.00;11.00;;;;;;;;5054876;28;11054;-78
2021/05/14 03:55:42;;;;;;;;;9.50;9.50;;;;;;;;5058048;28;11076;-77
2021/05/14 03:58:09;;;;;;;;;10.50;10.00;;;;;;;;5063286;28;11081;-77
2021/05/14 04:00:36;;;;;;;;;13.25;12.00;;;;;;;;5049059;28;10994;-78
2021/05/14 04:03:04;;;;;;;;;11.75;11.25;;;;;;;;5063573;28;11136;-78
2021/05/14 04:05:30;;;;;;;;;12.75;12.75;;;;;;;;5062670;28;11074;-77
2021/05/14 04:07:57;;;;;;;;;12.75;12.75;;;;;;;;5054027;28;11266;-78
2021/05/14 04:10:36;;;;;;;;;13.00;11.50;;;;;;;;5065261;28;11172;-77
2021/05/14 04:15:54;;;;;;;;;14.75;13.25;;;;;;;;5047152;28;11272;-78
2021/05/14 04:18:21;;;;;;;;;17.25;16.75;;;;;;;;5060396;28;11130;-77
2021/05/14 04:20:48;;;;;;;;;14.75;14.75;;;;;;;;5063573;28;11489;-77
2021/05/14 04:23:16;;;;;;;;;13.75;13.50;;;;;;;;5061181;28;11186;-78
2021/05/14 04:25:43;;;;;;;;;17.00;13.50;;;;;;;;5053597;28;12326;-78
2021/05/14 04:28:11;;;;;;;;;16.50;13.00;;;;;;;;5059737;28;11457;-78
2021/05/14 04:30:38;;;;;;;;;13.75;12.50;;;;;;;;5045243;28;11393;-77
2021/05/14 04:33:06;;;;;;;;;6.25;6.25;;;;;;;;5041092;28;11410;-78
2021/05/14 04:35:33;;;;;;;;;13.25;8.25;;;;;;;;5060462;28;11199;-77
2021/05/14 04:38:01;;;;;;;;;7.25;7.00;;;;;;;;5052845;28;11195;-77
2021/05/14 04:40:28;;;;;;;;;7.00;4.00;;;;;;;;5060877;28;11128;-78
2021/05/14 04:43:00;;;;;;;;;7.00;7.00;;;;;;;;5064239;28;10975;-78
2021/05/14 04:45:29;;;;;;;;;8.00;7.00;;;;;;;;5059665;28;11107;-78
2021/05/14 04:47:56;;;;;;;;;9.25;6.25;;;;;;;;5063545;28;10926;-77
2021/05/14 04:50:23;;;;;;;;;7.50;7.50;;;;;;;;5054293;28;11026;-77
2021/05/14 04:52:50;;;;;;;;;10.00;8.00;;;;;;;;5055731;28;10861;-77
2021/05/14 04:55:17;;;;;;;;;6.00;6.00;;;;;;;;5064793;28;11031;-77
2021/05/14 04:57:44;;;;;;;;;7.00;7.00;;;;;;;;5054897;28;10896;-77
2021/05/14 05:00:12;;;;;;;;;9.25;7.00;;;;;;;;5063751;28;10983;-79
2021/05/14 05:02:40;;;;;;;;;6.50;6.50;;;;;;;;5049467;28;10905;-78
2021/05/14 05:05:08;;;;;;;;;11.50;9.25;;;;;;;;5059759;28;10764;-78
2021/05/14 05:07:38;;;;;;;;;6.75;6.75;;;;;;;;5068044;28;10699;-78
2021/05/14 05:10:06;;;;;;;;;9.75;9.75;;;;;;;;5062024;28;10748;-79
2021/05/14 05:12:33;;;;;;;;;8.50;8.50;;;;;;;;5060482;28;10727;-72
2021/05/14 05:15:00;;;;;;;;;9.25;9.25;;;;;;;;5040935;28;10651;-72
2021/05/14 05:17:27;;;;;;;;;8.50;8.50;;;;;;;;5064391;28;10622;-72
2021/05/14 05:19:55;;;;;;;;;10.25;10.25;;;;;;;;5055805;28;11228;-72
2021/05/14 05:22:22;;;;;;;;;9.00;9.00;;;;;;;;5063798;28;10652;-73
2021/05/14 05:24:49;;;;;;;;;10.50;10.50;;;;;;;;5064287;28;10421;-73
2021/05/14 05:27:16;;;;;;;;;9.00;9.00;;;;;;;;5063149;28;10317;-71
2021/05/14 05:29:43;;;;;;;;;9.00;9.00;;;;;;;;5064516;28;10442;-72
2021/05/14 05:32:10;;;;;;;;;11.00;10.50;;;;;;;;5060424;28;10369;-72
2021/05/14 05:34:37;;;;;;;;;5.00;5.00;;;;;;;;5063994;28;10481;-72
2021/05/14 05:37:06;;;;;;;;;9.00;9.00;;;;;;;;5063822;28;10535;-72
2021/05/14 05:39:33;;;;;;;;;12.75;12.50;;;;;;;;5045774;28;10604;-72
2021/05/14 05:42:00;;;;;;;;;9.00;9.00;;;;;;;;5064262;28;10497;-72
2021/05/14 05:44:27;;;;;;;;;8.25;7.50;;;;;;;;5062946;28;10449;-72
2021/05/14 05:46:53;;;;;;;;;8.00;8.00;;;;;;;;5046093;28;10480;-72
2021/05/14 05:49:21;;;;;;;;;8.00;7.50;;;;;;;;5062257;28;10494;-73
2021/05/14 05:51:48;;;;;;;;;10.25;7.75;;;;;;;;5063539;28;10491;-75
2021/05/14 05:54:16;;;;;;;;;7.50;5.50;;;;;;;;5063434;28;10334;-75
2021/05/14 05:56:45;;;;;;;;;8.00;8.00;;;;;;;;5063746;28;10408;-73
2021/05/14 05:59:16;;;;;;;;;7.25;7.25;;;;;;;;5071718;28;10323;-74
2021/05/14 06:01:43;;;;;;;;;6.75;6.75;;;;;;;;5061372;28;10217;-74
2021/05/14 06:04:10;;;;;;;;;7.00;7.00;;;;;;;;5063496;28;10388;-74
2021/05/14 06:06:37;;;;;;;;;8.00;8.00;;;;;;;;5071155;28;10255;-73
2021/05/14 06:09:04;;;;;;;;;8.00;8.00;;;;;;;;5063868;28;10424;-75
2021/05/14 06:11:32;;;;;;;;;6.00;6.00;;;;;;;;5062292;28;10411;-74
2021/05/14 06:13:59;;;;;;;;;8.25;8.00;;;;;;;;5062784;28;10417;-74
2021/05/14 06:16:27;;;;;;;;;4.00;4.00;;;;;;;;5045543;28;10555;-74
2021/05/14 06:18:58;;;;;;;;;10.00;8.25;;;;;;;;5062282;28;10592;-73
2021/05/14 06:21:24;;;;;;;;;6.50;6.50;;;;;;;;5063494;28;10380;-73
2021/05/14 06:23:51;;;;;;;;;3.75;3.75;;;;;;;;5056548;28;10469;-73
2021/05/14 06:26:18;;;;;;;;;6.25;6.25;;;;;;;;5062115;28;10409;-74
2021/05/14 06:28:46;;;;;;;;;7.25;7.25;;;;;;;;5062249;28;10495;-73
2021/05/14 06:31:13;;;;;;;;;9.00;6.25;;;;;;;;5061640;28;10589;-73
2021/05/14 06:33:40;;;;;;;;;9.00;8.00;;;;;;;;5057505;28;10510;-73
2021/05/14 06:36:07;;;;;;;;;6.00;6.00;;;;;;;;5050430;28;11163;-75
2021/05/14 06:38:34;;;;;;;;;7.00;7.00;;;;;;;;5053172;28;10313;-74
2021/05/14 06:41:01;;;;;;;;;7.00;7.00;;;;;;;;5056193;28;11784;-72
2021/05/14 06:43:28;;;;;;;;;10.00;8.50;;;;;;;;5047766;28;11233;-73
2021/05/14 06:45:56;;;;;;;;;10.00;8.50;;;;;;;;5061181;28;10350;-72
2021/05/14 06:48:23;;;;;;;;;9.00;7.75;;;;;;;;5061069;28;10668;-73
2021/05/14 06:50:50;;;;;;;;;8.00;8.00;;;;;;;;5049491;28;10374;-71
2021/05/14 06:53:17;;;;;;;;;7.50;7.50;;;;;;;;5060787;28;10404;-73
2021/05/14 06:55:44;;;;;;;;;5.00;5.00;;;;;;;;5061126;28;10302;-72
2021/05/14 06:58:12;;;;;;;;;7.00;6.25;;;;;;;;5061562;28;10930;-73
2021/05/14 07:00:38;;;;;;;;;5.50;5.25;;;;;;;;5049417;28;11065;-71
2021/05/14 07:03:06;;;;;;;;;8.75;8.75;;;;;;;;5060537;28;10144;-72
2021/05/14 07:05:34;;;;;;;;;8.50;8.50;;;;;;;;5055260;28;10236;-71
2021/05/14 07:08:01;;;;;;;;;9.00;8.00;;;;;;;;5039140;28;10244;-72
2021/05/14 07:10:28;;;;;;;;;8.00;7.00;;;;;;;;5052952;28;10171;-71
2021/05/14 07:12:56;;;;;;;;;9.00;7.50;;;;;;;;5058574;28;10360;-70
2021/05/14 07:15:23;;;;;;;;;7.25;7.25;;;;;;;;5054039;28;10245;-72
2021/05/14 07:17:50;;;;;;;;;10.00;10.00;;;;;;;;5059380;28;10243;-72
2021/05/14 07:20:18;;;;;;;;;12.50;10.00;;;;;;;;5058979;28;10421;-72
2021/05/14 07:22:45;;;;;;;;;6.00;4.25;;;;;;;;5055209;28;11253;-72
2021/05/14 07:25:12;;;;;;;;;11.75;9.50;;;;;;;;5057091;28;10476;-71
2021/05/14 07:27:40;;;;;;;;;10.00;10.00;;;;;;;;5040872;28;10424;-72
2021/05/14 07:30:11;;;;;;;;;8.00;8.00;;;;;;;;5058906;28;10354;-73
2021/05/14 07:32:38;;;;;;;;;7.50;7.00;;;;;;;;5059102;28;10406;-72
2021/05/14 07:35:06;;;;;;;;;9.00;9.00;;;;;;;;5062751;28;10248;-71
2021/05/14 07:37:34;;;;;;;;;8.75;8.25;;;;;;;;5060430;28;10273;-73
2021/05/14 07:40:01;;;;;;;;;10.00;10.00;;;;;;;;5055048;28;10463;-73
2021/05/14 07:42:28;;;;;;;;;14.00;10.00;;;;;;;;5050105;28;10339;-73
2021/05/14 07:44:55;;;;;;;;;9.00;9.00;;;;;;;;5062635;28;10439;-72
2021/05/14 07:47:22;;;;;;;;;8.00;6.75;;;;;;;;5059089;28;10267;-74
2021/05/14 07:49:49;;;;;;;;;7.25;7.25;;;;;;;;5040731;28;10092;-72
2021/05/14 07:52:17;;;;;;;;;8.25;8.25;;;;;;;;5056509;28;10083;-72
2021/05/14 07:54:45;;;;;;;;;7.75;7.75;;;;;;;;5063084;28;10049;-73
2021/05/14 07:57:12;;;;;;;;;10.50;8.50;;;;;;;;5061505;28;10068;-73
2021/05/14 07:59:38;;;;;;;;;8.50;8.50;;;;;;;;5062681;28;9939;-72
2021/05/14 08:02:05;;;;;;;;;8.00;8.00;;;;;;;;5057377;28;10022;-73
2021/05/14 08:04:32;;;;;;;;;7.25;7.25;;;;;;;;5059421;28;9944;-72
2021/05/14 08:06:59;;;;;;;;;10.50;10.50;;;;;;;;5040112;28;9889;-73
2021/05/14 08:09:26;;;;;;;;;7.25;7.25;;;;;;;;5059438;28;9946;-73
2021/05/14 08:11:54;;;;;;;;;7.50;7.50;;;;;;;;5057157;28;9936;-72
2021/05/14 08:14:22;;;;;;;;;8.75;8.75;;;;;;;;5061149;28;9825;-73
2021/05/14 08:16:48;;;;;;;;;9.50;9.50;;;;;;;;5039849;28;9949;-75
2021/05/14 08:19:16;;;;;;;;;10.75;7.50;;;;;;;;5038686;28;10065;-74
2021/05/14 08:21:44;;;;;;;;;9.50;9.50;;;;;;;;5042419;28;10017;-74
2021/05/14 08:24:11;;;;;;;;;10.50;9.50;;;;;;;;5054690;28;9864;-74
2021/05/14 08:26:40;;;;;;;;;9.25;9.25;;;;;;;;5060427;28;10004;-74
2021/05/14 08:29:10;;;;;;;;;9.25;7.50;;;;;;;;5060242;28;9861;-73
2021/05/14 08:31:39;;;;;;;;;9.00;9.00;;;;;;;;5058480;28;9835;-73
2021/05/14 08:34:07;;;;;;;;;8.00;8.00;;;;;;;;5060297;28;9969;-73
2021/05/14 08:36:34;;;;;;;;;10.00;10.00;;;;;;;;5058163;28;9894;-73
2021/05/14 08:39:01;;;;;;;;;8.00;7.00;;;;;;;;5057889;28;9865;-73
2021/05/14 08:41:28;;;;;;;;;7.50;7.50;;;;;;;;5043047;28;10014;-73
2021/05/14 08:43:56;;;;;;;;;7.00;7.00;;;;;;;;5066732;28;9741;-73
2021/05/14 08:46:26;;;;;;;;;10.00;8.50;;;;;;;;5060717;28;9672;-73
2021/05/14 08:48:54;;;;;;;;;7.00;6.75;;;;;;;;5061369;28;9539;-72
2021/05/14 08:51:25;;;;;;;;;6.50;6.50;;;;;;;;5041314;28;9496;-72
2021/05/14 08:53:52;;;;;;;;;5.00;5.00;;;;;;;;5060494;28;9495;-72
2021/05/14 08:56:19;;;;;;;;;5.33;5.33;;;;;;;;5054445;28;9402;-75
2021/05/14 08:58:46;;;;;;;;;8.33;7.00;;;;;;;;5056914;28;9595;-74
2021/05/14 09:01:13;;;;;;;;;8.67;6.33;;;;;;;;5041443;28;9277;-78
2021/05/14 09:03:58;;;;;;;;;8.00;8.00;;;;;;;;5058830;28;9408;-75
2021/05/14 09:06:29;;;;;;;;;8.33;8.33;;;;;;;;5058822;28;9402;-73
2021/05/14 09:08:57;;;;;;;;;8.75;8.75;;;;;;;;5056967;28;9476;-73
2021/05/14 09:11:35;;;;;;;;;8.00;6.00;;;;;;;;5060373;28;9406;-72
2021/05/14 09:14:02;;;;;;;;;8.00;8.00;;;;;;;;5055997;28;10122;-73
2021/05/14 09:16:40;;;;;;;;;4.67;4.67;;;;;;;;5057599;28;9527;-74
2021/05/14 09:19:08;;;;;;;;;8.00;5.00;;;;;;;;5053479;28;9181;-75
2021/05/14 09:21:35;;;;;;;;;6.00;5.00;;;;;;;;5054758;28;9274;-74
2021/05/14 09:24:02;;;;;;;;;2.67;2.67;;;;;;;;5040268;28;9271;-74
2021/05/14 09:26:31;;;;;;;;;3.67;3.00;;;;;;;;5057005;28;9101;-74
2021/05/14 09:28:58;;;;;;;;;6.00;3.00;;;;;;;;5057292;28;9120;-73
2021/05/14 09:31:26;;;;;;;;;3.33;3.33;;;;;;;;5054238;28;9190;-72
2021/05/14 09:33:54;;;;;;;;;3.67;3.67;;;;;;;;5070636;28;9084;-72
2021/05/14 09:36:24;;;;;;;;;4.00;4.00;;;;;;;;5055863;28;9902;-72
2021/05/14 09:38:53;;;;;;;;;5.00;5.00;;;;;;;;5056621;28;10629;-72
2021/05/14 09:41:25;;;;;;;;;4.00;4.00;;;;;;;;5039215;28;9385;-70
2021/05/14 09:43:59;;;;;;;;;7.33;5.00;;;;;;;;5057029;28;9210;-72
2021/05/14 09:46:37;;;;;;;;;4.00;4.00;;;;;;;;5054356;28;9283;-72
2021/05/14 09:49:06;;;;;;;;;6.67;6.67;;;;;;;;5039242;28;11105;-73
2021/05/14 09:51:35;;;;;;;;;8.00;8.00;;;;;;;;5059593;28;9337;-72
2021/05/14 09:54:22;;;;;;;;;4.67;4.67;;;;;;;;5059925;28;9384;-73
2021/05/14 09:57:19;;;;;;;;;8.00;8.00;;;;;;;;5058751;28;9545;-74
2021/05/14 09:59:48;;;;;;;;;4.50;4.50;;;;;;;;5059428;28;10001;-71
2021/05/14 10:02:22;;;;;;;;;8.50;8.50;;;;;;;;5048717;28;9715;-72
2021/05/14 10:04:49;;;;;;;;;8.50;8.50;;;;;;;;5053004;28;9906;-71
2021/05/14 10:07:18;;;;;;;;;9.75;9.75;;;;;;;;5059504;28;9660;-71
2021/05/14 10:09:47;;;;;;;;;10.00;10.00;;;;;;;;5056634;28;9778;-71
2021/05/14 10:12:16;;;;;;;;;11.00;10.75;;;;;;;;5036658;28;9653;-70
2021/05/14 10:14:43;;;;;;;;;10.00;10.00;;;;;;;;5056841;28;9854;-70
2021/05/14 10:17:10;;;;;;;;;12.75;10.75;;;;;;;;5058096;28;9818;-71
2021/05/14 10:19:37;;;;;;;;;14.25;11.75;;;;;;;;5052552;28;9892;-71
2021/05/14 10:22:05;;;;;;;;;11.00;11.00;;;;;;;;5059285;28;9876;-71
2021/05/14 10:24:40;;;;;;;;;11.50;11.50;;;;;;;;5055610;28;9911;-73
2021/05/14 10:27:18;;;;;;;;;10.75;9.50;;;;;;;;5038395;28;9905;-72
2021/05/14 10:29:47;;;;;;;;;11.00;11.00;;;;;;;;5053426;28;10549;-73
2021/05/14 10:32:15;;;;;;;;;8.75;7.25;;;;;;;;5048358;28;10068;-73
2021/05/14 10:34:41;;;;;;;;;9.25;9.25;;;;;;;;5053888;28;10092;-72
2021/05/14 10:37:09;;;;;;;;;4.50;3.25;;;;;;;;5050892;28;10059;-74
2021/05/14 10:39:39;;;;;;;;;5.50;2.25;;;;;;;;5056480;28;9901;-73
2021/05/14 10:42:08;;;;;;;;;4.00;4.00;;;;;;;;5057518;28;10097;-72
2021/05/14 10:44:53;;;;;;;;;3.00;3.00;;;;;;;;5056813;28;9957;-71
2021/05/14 10:47:45;;;;;;;;;3.75;2.25;;;;;;;;5056362;28;9717;-71
2021/05/14 10:50:37;;;;;;;;;3.00;3.00;;;;;;;;5050767;28;9614;-72
2021/05/14 10:53:31;;;;;;;;;3.50;2.00;;;;;;;;5056512;28;9783;-72
2021/05/14 10:56:26;;;;;;;;;2.75;2.00;;;;;;;;5027707;28;9479;-73
2021/05/14 10:58:53;;;;;;;;;3.00;3.00;;;;;;;;5048203;28;10251;-72
2021/05/14 11:01:34;;;;;;;;;3.00;3.00;;;;;;;;5048148;28;9519;-73
2021/05/14 11:04:03;;;;;;;;;3.00;3.00;;;;;;;;5051181;28;9301;-72
2021/05/14 11:06:41;;;;;;;;;2.00;2.00;;;;;;;;5053666;28;9272;-72
2021/05/14 11:09:09;;;;;;;;;2.00;2.00;;;;;;;;5057415;28;9385;-75
2021/05/14 11:11:56;;;;;;;;;3.00;3.00;;;;;;;;5048752;28;8946;-73
2021/05/14 11:14:23;;;;;;;;;5.00;3.00;;;;;;;;5048635;28;9164;-72
2021/05/14 11:16:51;;;;;;;;;1.00;1.00;;;;;;;;5047291;28;9106;-73
2021/05/14 11:19:21;;;;;;;;;2.00;2.00;;;;;;;;5051138;28;8957;-73
2021/05/14 11:22:04;;;;;;;;;2.67;2.67;;;;;;;;5047730;28;9205;-72
2021/05/14 11:24:34;;;;;;;;;2.00;2.00;;;;;;;;5050844;28;9914;-72
2021/05/14 11:27:05;;;;;;;;;2.00;2.00;;;;;;;;5050743;28;9183;-72
2021/05/14 11:29:34;;;;;;;;;1.00;1.00;;;;;;;;5047864;28;9136;-73
2021/05/14 11:32:18;;;;;;;;;1.67;1.67;;;;;;;;5053011;28;8960;-72
2021/05/14 11:34:53;;;;;;;;;1.00;1.00;;;;;;;;5042652;28;9085;-74
2021/05/14 11:37:20;;;;;;;;;6.00;2.67;;;;;;;;5043019;28;9567;-73
2021/05/14 11:39:47;;;;;;;;;1.00;1.00;;;;;;;;5038118;28;9039;-72
2021/05/14 11:42:20;;;;;;;;;0.75;0.75;;;;;;;;5054095;28;9054;-72
2021/05/14 11:45:01;;;;;;;;;1.00;1.00;;;;;;;;5048871;28;8867;-72
2021/05/14 11:47:29;;;;;;;;;0.00;0.00;;;;;;;;5049543;28;8868;-72
2021/05/14 11:49:57;;;;;;;;;0.00;0.00;;;;;;;;5055547;28;8913;-73
2021/05/14 11:52:39;;;;;;;;;0.00;0.00;;;;;;;;5049632;28;8848;-74
2021/05/14 11:55:08;;;;;;;;;0.00;0.00;;;;;;;;5042014;28;8866;-74
2021/05/14 11:57:36;;;;;;;;;0.00;0.00;;;;;;;;5045633;28;8879;-72
2021/05/14 12:00:05;;;;;;;;;0.00;0.00;;;;;;;;5059230;28;8979;-73
2021/05/14 12:02:40;;;;;;;;;0.00;0.00;;;;;;;;5047377;28;8868;-74
2021/05/14 12:05:09;;;;;;;;;0.00;0.00;;;;;;;;5053592;28;8885;-73
2021/05/14 12:07:36;;;;;;;;;4.50;3.00;;;;;;;;5056293;28;8860;-73
2021/05/14 12:10:06;;;;;;;;;0.00;0.00;;;;;;;;5047098;28;8893;-75
2021/05/14 12:12:33;;;;;;;;;0.00;0.00;;;;;;;;5061869;28;9022;-72
2021/05/14 12:15:18;;;;;;;;;0.00;0.00;;;;;;;;5052472;28;10237;-74
2021/05/14 12:17:49;;;;;;;;;0.00;0.00;;;;;;;;5055638;28;8879;-73
2021/05/14 12:20:30;;;;;;;;;0.50;0.50;;;;;;;;5058318;28;8890;-72
2021/05/14 12:22:59;;;;;;;;;0.00;0.00;;;;;;;;5061340;28;8872;-72
2021/05/14 12:25:27;;;;;;;;;0.00;0.00;;;;;;;;5058120;28;8887;-73
2021/05/14 12:27:55;;;;;;;;;0.00;0.00;;;;;;;;5057038;28;8856;-72
2021/05/14 12:30:38;;;;;;;;;0.00;0.00;;;;;;;;5055935;28;8785;-73
2021/05/14 12:33:07;;;;;;;;;0.25;0.25;;;;;;;;5058168;28;8949;-72
2021/05/14 12:35:34;;;;;;;;;0.00;0.00;;;;;;;;5060513;28;8836;-72
2021/05/14 12:38:02;;;;;;;;;0.00;0.00;;;;;;;;5059621;28;8876;-70
2021/05/14 12:40:31;;;;;;;;;0.00;0.00;;;;;;;;5059660;28;8875;-71
2021/05/14 12:43:08;;;;;;;;;0.00;0.00;;;;;;;;5060702;28;8880;-74
2021/05/14 12:45:37;;;;;;;;;1.25;0.00;;;;;;;;5060764;28;8856;-71
2021/05/14 12:48:06;;;;;;;;;0.00;0.00;;;;;;;;5060448;28;8910;-71
2021/05/14 12:50:34;;;;;;;;;1.00;1.00;;;;;;;;5053556;28;8882;-71
2021/05/14 12:53:00;;;;;;;;;2.00;1.00;;;;;;;;5059062;28;8860;-72
2021/05/14 12:55:27;;;;;;;;;1.00;1.00;;;;;;;;5041735;28;9003;-71
2021/05/14 12:57:57;;;;;;;;;0.75;0.75;;;;;;;;5061511;28;8860;-72
2021/05/14 13:00:25;;;;;;;;;0.75;0.75;;;;;;;;5059672;28;8840;-71
2021/05/14 13:02:54;;;;;;;;;1.00;1.00;;;;;;;;5056009;28;9836;-74
2021/05/14 13:05:33;;;;;;;;;1.50;1.00;;;;;;;;5062622;28;8892;-73
2021/05/14 13:08:04;;;;;;;;;1.75;1.75;;;;;;;;5057945;28;8870;-73
2021/05/14 13:10:37;;;;;;;;;2.00;2.00;;;;;;;;5052430;28;8850;-73
2021/05/14 13:13:04;;;;;;;;;1.50;1.50;;;;;;;;5060405;28;8900;-73
2021/05/14 13:15:31;;;;;;;;;1.50;1.50;;;;;;;;5069429;28;8927;-71
2021/05/14 13:18:00;;;;;;;;;2.00;2.00;;;;;;;;5053596;28;8874;-72
2021/05/14 13:20:27;;;;;;;;;1.00;1.00;;;;;;;;5066812;28;10391;-71
2021/05/14 13:22:54;;;;;;;;;2.00;2.00;;;;;;;;5047321;28;9023;-71
2021/05/14 13:25:21;;;;;;;;;1.75;1.75;;;;;;;;5059301;28;8887;-71
2021/05/14 13:27:48;;;;;;;;;1.75;1.75;;;;;;;;5061024;28;8866;-73
2021/05/14 13:30:17;;;;;;;;;1.00;1.00;;;;;;;;5038260;28;8885;-73
2021/05/14 13:32:44;;;;;;;;;3.75;2.00;;;;;;;;5057999;28;8991;-72
2021/05/14 13:35:13;;;;;;;;;1.00;1.00;;;;;;;;5055591;28;8876;-71
2021/05/14 13:37:40;;;;;;;;;1.50;1.50;;;;;;;;5055114;28;9562;-71
2021/05/14 13:40:08;;;;;;;;;1.00;1.00;;;;;;;;5059906;28;8894;-72
2021/05/14 13:42:35;;;;;;;;;1.00;1.00;;;;;;;;5040810;28;8844;-72
2021/05/14 13:45:02;;;;;;;;;1.00;1.00;;;;;;;;5052141;28;8892;-72
2021/05/14 13:47:28;;;;;;;;;0.00;0.00;;;;;;;;5055916;28;8919;-72
2021/05/14 13:49:55;;;;;;;;;0.00;0.00;;;;;;;;5058717;28;8858;-72
2021/05/14 13:52:24;;;;;;;;;0.00;0.00;;;;;;;;5059641;28;8888;-73
2021/05/14 13:54:50;;;;;;;;;0.75;0.75;;;;;;;;5054355;28;8859;-72
2021/05/14 13:57:17;;;;;;;;;0.25;0.25;;;;;;;;5058035;28;9041;-72
2021/05/14 13:59:44;;;;;;;;;0.00;0.00;;;;;;;;5054684;28;8890;-72
2021/05/14 14:02:11;;;;;;;;;0.25;0.25;;;;;;;;5045704;28;8840;-73
2021/05/14 14:04:38;;;;;;;;;0.00;0.00;;;;;;;;5064205;28;8851;-73
2021/05/14 14:07:05;;;;;;;;;0.50;0.00;;;;;;;;5061178;28;8872;-72
2021/05/14 14:09:33;;;;;;;;;0.00;0.00;;;;;;;;5059002;28;9105;-73
2021/05/14 14:12:02;;;;;;;;;0.00;0.00;;;;;;;;5060870;28;9346;-72
2021/05/14 14:14:29;;;;;;;;;0.00;0.00;;;;;;;;5056925;28;8929;-72
2021/05/14 14:16:56;;;;;;;;;0.00;0.00;;;;;;;;5055775;28;8872;-72
2021/05/14 14:19:23;;;;;;;;;0.00;0.00;;;;;;;;5059654;28;8884;-73
2021/05/14 14:21:51;;;;;;;;;1.00;1.00;;;;;;;;5060229;28;8902;-73
2021/05/14 14:24:18;;;;;;;;;1.00;1.00;;;;;;;;5059538;28;8894;-73
2021/05/14 14:26:46;;;;;;;;;0.00;0.00;;;;;;;;5058673;28;8884;-72
2021/05/14 14:29:13;;;;;;;;;1.00;1.00;;;;;;;;5059527;28;8901;-71
2021/05/14 14:31:41;;;;;;;;;0.50;0.50;;;;;;;;5058035;28;9536;-72
2021/05/14 14:34:09;;;;;;;;;1.00;1.00;;;;;;;;5059311;28;8876;-72
2021/05/14 14:36:36;;;;;;;;;1.00;1.00;;;;;;;;5056666;28;8867;-71
2021/05/14 14:39:04;;;;;;;;;0.50;0.50;;;;;;;;5041948;28;8876;-72
2021/05/14 14:41:31;;;;;;;;;1.50;0.00;;;;;;;;5057210;28;8886;-72
2021/05/14 14:44:00;;;;;;;;;0.50;0.50;;;;;;;;5042518;28;8892;-72
2021/05/14 14:46:27;;;;;;;;;1.00;1.00;;;;;;;;5042477;28;8994;-72
2021/05/14 14:48:54;;;;;;;;;1.00;1.00;;;;;;;;5056795;28;8845;-71
2021/05/14 14:51:20;;;;;;;;;1.00;1.00;;;;;;;;5048977;28;8894;-71
2021/05/14 14:53:47;;;;;;;;;1.00;1.00;;;;;;;;5056430;28;8908;-71
2021/05/14 14:56:15;;;;;;;;;1.00;1.00;;;;;;;;5051319;28;8876;-71